createdAt,value
2019-03-13T00:00:59.227Z,57.60
2019-03-13T00:05:03.539Z,57.10
2019-03-13T00:09:09.268Z,56.90
2019-03-13T00:13:12.265Z,58.40
2019-03-13T00:17:15.283Z,61.50
2019-03-13T00:21:18.283Z,62.60
2019-03-13T00:25:21.482Z,63.20
2019-03-13T00:29:24.484Z,63.60
2019-03-13T00:33:27.589Z,63.50
2019-03-13T00:37:30.589Z,63.20
2019-03-13T00:41:33.699Z,62.90
2019-03-13T00:45:36.728Z,63.20
2019-03-13T00:49:39.759Z,63.40
2019-03-13T00:53:42.762Z,63.60
2019-03-13T00:57:45.766Z,64.50
2019-03-13T01:02:08.349Z,64.60
2019-03-13T01:06:13.477Z,64.80
2019-03-13T01:10:19.486Z,64.40
2019-03-13T01:14:22.733Z,63.60
2019-03-13T01:18:25.827Z,62.90
2019-03-13T01:22:28.932Z,61.90
2019-03-13T01:26:31.939Z,61.30
2019-03-13T01:30:36.848Z,61.10
2019-03-13T01:34:41.760Z,61.30
2019-03-13T01:38:44.817Z,61.50
2019-03-13T01:42:47.822Z,62.10
2019-03-13T01:46:50.837Z,61.90
2019-03-13T01:50:53.836Z,61.70
2019-03-13T01:54:56.845Z,61.80
2019-03-13T01:58:59.869Z,61.50
2019-03-13T02:03:02.990Z,61.20
2019-03-13T02:07:06.004Z,60.40
2019-03-13T02:11:10.736Z,60.50
2019-03-13T02:15:17.139Z,60.70
2019-03-13T02:19:20.287Z,60.60
2019-03-13T02:23:23.363Z,60.40
2019-03-13T02:27:26.607Z,61.20
2019-03-13T02:31:29.610Z,61.00
2019-03-13T02:35:32.619Z,60.60
2019-03-13T02:39:35.757Z,61.00
2019-03-13T02:43:38.762Z,60.80
2019-03-13T02:47:41.769Z,60.70
2019-03-13T02:51:44.825Z,61.20
2019-03-13T02:55:47.816Z,61.30
2019-03-13T02:59:50.894Z,61.40
2019-03-13T03:03:55.863Z,61.40
2019-03-13T03:08:07.052Z,61.70
2019-03-13T03:12:11.454Z,61.70
2019-03-13T03:16:14.462Z,61.40
2019-03-13T03:20:18.874Z,61.00
2019-03-13T03:24:21.898Z,61.30
2019-03-13T03:28:24.909Z,61.30
2019-03-13T03:32:27.993Z,61.20
2019-03-13T03:36:30.976Z,61.00
2019-03-13T03:40:33.994Z,61.30
2019-03-13T03:44:38.013Z,61.20
2019-03-13T03:48:41.016Z,61.30
2019-03-13T03:52:44.128Z,61.20
2019-03-13T03:56:47.194Z,61.00
2019-03-13T04:00:50.684Z,60.90
2019-03-13T04:04:53.685Z,60.30
2019-03-13T04:08:56.667Z,60.30
2019-03-13T04:12:59.789Z,60.50
2019-03-13T04:17:02.789Z,60.80
2019-03-13T04:21:05.825Z,60.20
2019-03-13T04:25:20.449Z,60.30
2019-03-13T04:29:23.460Z,60.90
2019-03-13T04:33:28.515Z,60.90
2019-03-13T04:37:31.603Z,61.80
2019-03-13T04:41:34.587Z,61.30
2019-03-13T04:45:37.683Z,61.40
2019-03-13T04:49:40.691Z,61.10
2019-03-13T04:53:43.711Z,61.00
2019-03-13T04:57:46.710Z,60.80
2019-03-13T05:01:49.776Z,61.50
2019-03-13T05:05:52.982Z,61.90
2019-03-13T05:09:55.987Z,62.00
2019-03-13T05:13:59.956Z,62.30
2019-03-13T05:18:02.947Z,63.40
2019-03-13T05:22:05.953Z,63.90
2019-03-13T05:26:10.017Z,63.70
2019-03-13T05:30:13.127Z,64.00
2019-03-13T05:34:16.119Z,64.10
2019-03-13T05:38:20.189Z,64.00
2019-03-13T05:42:24.227Z,64.10
2019-03-13T05:46:27.245Z,64.50
2019-03-13T05:50:31.586Z,64.80
2019-03-13T05:54:35.518Z,64.40
2019-03-13T05:58:40.557Z,64.20
2019-03-13T06:02:43.646Z,64.20
2019-03-13T06:06:46.689Z,63.80
2019-03-13T06:10:49.755Z,63.50
2019-03-13T06:14:53.910Z,63.40
2019-03-13T06:18:56.976Z,62.70
2019-03-13T06:22:59.967Z,62.40
2019-03-13T06:27:02.974Z,62.80
2019-03-13T06:31:06.040Z,63.20
2019-03-13T06:35:09.309Z,63.60
2019-03-13T06:39:12.315Z,63.30
2019-03-13T06:43:15.361Z,62.40
2019-03-13T06:47:18.393Z,62.30
2019-03-13T06:51:22.439Z,61.70
2019-03-13T06:55:25.441Z,61.30
2019-03-13T06:59:33.301Z,64.60
2019-03-13T07:03:40.728Z,65.90
2019-03-13T07:07:48.423Z,66.60
2019-03-13T07:11:53.339Z,65.60
2019-03-13T07:15:59.118Z,63.30
2019-03-13T07:20:11.539Z,61.10
2019-03-13T07:24:16.451Z,56.60
2019-03-13T07:28:21.359Z,55.50
2019-03-13T07:32:29.057Z,56.80
2019-03-13T07:36:39.793Z,57.90
2019-03-13T07:40:53.344Z,58.50
2019-03-13T07:45:14.581Z,56.80
2019-03-13T07:49:25.261Z,57.00
2019-03-13T07:53:33.000Z,56.40
2019-03-13T07:57:54.378Z,54.10
2019-03-13T08:01:59.323Z,52.90
2019-03-13T08:06:13.267Z,51.50
2019-03-13T08:10:24.139Z,53.20
2019-03-13T08:14:29.058Z,53.30
2019-03-13T08:18:49.939Z,53.20
2019-03-13T08:22:57.718Z,52.80
2019-03-13T08:27:17.436Z,52.30
2019-03-13T08:31:34.175Z,52.50
2019-03-13T08:35:54.095Z,52.00
2019-03-13T08:40:04.687Z,50.40
2019-03-13T08:44:09.692Z,48.80
2019-03-13T08:48:14.623Z,49.10
2019-03-13T08:52:28.205Z,50.40
2019-03-13T08:56:33.227Z,49.00
2019-03-13T09:00:41.325Z,48.70
2019-03-13T09:04:58.261Z,48.10
2019-03-13T09:09:18.482Z,48.80
2019-03-13T09:13:29.163Z,49.00
2019-03-13T09:17:34.091Z,48.80
2019-03-13T09:21:39.431Z,48.70
2019-03-13T09:26:00.986Z,48.80
2019-03-13T09:30:27.978Z,47.60
2019-03-13T09:34:33.908Z,45.30
2019-03-13T09:38:41.447Z,45.40
2019-03-13T09:43:01.242Z,46.40
2019-03-13T09:47:09.255Z,45.70
2019-03-13T09:51:17.938Z,47.50
2019-03-13T09:55:37.832Z,48.50
2019-03-13T09:59:49.002Z,49.60
2019-03-13T10:03:53.967Z,49.00
2019-03-13T10:08:15.119Z,48.30
2019-03-13T10:12:25.821Z,48.20
2019-03-13T10:16:39.857Z,48.60
2019-03-13T10:20:51.775Z,49.60
2019-03-13T10:25:12.553Z,48.30
2019-03-13T10:29:17.597Z,48.30
2019-03-13T10:33:38.846Z,48.50
2019-03-13T10:37:52.846Z,48.40
2019-03-13T10:42:09.767Z,48.60
2019-03-13T10:46:15.739Z,49.00
2019-03-13T10:50:23.189Z,49.10
2019-03-13T10:54:43.531Z,48.20
2019-03-13T10:59:06.100Z,47.60
2019-03-13T11:03:13.787Z,47.20
2019-03-13T11:07:36.803Z,46.40
2019-03-13T11:11:41.796Z,45.60
2019-03-13T11:16:03.426Z,45.40
2019-03-13T11:20:15.805Z,45.40
2019-03-13T11:24:20.798Z,43.50
2019-03-13T11:28:39.006Z,45.00
2019-03-13T11:32:43.923Z,44.10
2019-03-13T11:36:48.832Z,44.90
2019-03-13T11:41:12.175Z,45.10
2019-03-13T11:45:29.313Z,46.40
2019-03-13T11:49:39.875Z,46.70
2019-03-13T11:54:02.849Z,47.40
2019-03-13T11:58:10.303Z,47.40
2019-03-13T12:02:18.253Z,47.70
2019-03-13T12:06:23.173Z,47.50
2019-03-13T12:10:34.004Z,46.60
2019-03-13T12:14:41.738Z,46.60
2019-03-13T12:18:49.303Z,46.20
2019-03-13T12:23:03.237Z,45.90
2019-03-13T12:27:10.951Z,45.20
2019-03-13T12:31:22.644Z,45.80
2019-03-13T12:35:39.649Z,46.80
2019-03-13T12:40:00.859Z,46.90
2019-03-13T12:44:17.598Z,46.30
2019-03-13T12:48:38.867Z,45.70
2019-03-13T12:53:00.367Z,46.40
2019-03-13T12:57:20.415Z,47.40
2019-03-13T13:01:28.337Z,47.40
2019-03-13T13:05:42.028Z,47.40
2019-03-13T13:10:03.445Z,48.40
2019-03-13T13:14:16.105Z,47.80
2019-03-13T13:18:26.953Z,48.10
2019-03-13T13:22:29.969Z,48.50
2019-03-13T13:26:32.989Z,48.50
2019-03-13T13:30:36.035Z,48.40
2019-03-13T13:34:41.371Z,48.60
2019-03-13T13:38:45.380Z,48.80
2019-03-13T13:42:48.391Z,48.90
2019-03-13T13:46:51.400Z,49.10
2019-03-13T13:50:54.437Z,49.20
2019-03-13T13:54:58.505Z,49.30
2019-03-13T13:59:01.759Z,49.20
2019-03-13T14:03:04.927Z,49.20
2019-03-13T14:07:07.959Z,49.60
2019-03-13T14:11:11.015Z,49.90
2019-03-13T14:15:14.191Z,50.10
2019-03-13T14:19:17.206Z,50.00
2019-03-13T14:23:20.207Z,49.90
2019-03-13T14:27:23.210Z,50.30
2019-03-13T14:31:26.289Z,51.50
2019-03-13T14:35:30.385Z,51.40
2019-03-13T14:39:33.423Z,52.80
2019-03-13T14:43:36.435Z,53.20
2019-03-13T14:47:39.452Z,53.30
2019-03-13T14:51:42.477Z,54.70
2019-03-13T14:55:45.497Z,54.70
2019-03-13T14:59:48.519Z,54.70
2019-03-13T15:03:51.536Z,54.70
2019-03-13T15:07:54.576Z,54.70
2019-03-13T15:11:57.590Z,54.60
2019-03-13T15:16:03.565Z,54.40
2019-03-13T15:20:09.967Z,54.90
2019-03-13T15:24:12.978Z,54.80
2019-03-13T15:28:17.410Z,55.00
2019-03-13T15:32:20.877Z,55.90
2019-03-13T15:36:24.764Z,53.60
2019-03-13T15:40:27.755Z,54.00
2019-03-13T15:44:30.783Z,56.00
2019-03-13T15:48:33.800Z,55.90
2019-03-13T15:52:36.795Z,56.40
2019-03-13T15:56:40.816Z,56.40
2019-03-13T16:00:43.854Z,56.20
2019-03-13T16:04:47.903Z,56.10
2019-03-13T16:08:52.075Z,57.20
2019-03-13T16:12:58.199Z,59.10
2019-03-13T16:17:01.411Z,60.10
2019-03-13T16:21:04.453Z,61.20
2019-03-13T16:25:09.912Z,61.40
2019-03-13T16:29:12.924Z,61.30
2019-03-13T16:33:16.004Z,61.40
2019-03-13T16:37:19.956Z,61.10
2019-03-13T16:41:22.998Z,61.00
2019-03-13T16:45:25.995Z,60.80
2019-03-13T16:49:29.030Z,60.90
2019-03-13T16:53:32.045Z,60.80
2019-03-13T16:57:35.063Z,60.80
2019-03-13T17:01:38.061Z,60.70
2019-03-13T17:05:41.071Z,60.90
2019-03-13T17:09:44.067Z,60.90
2019-03-13T17:13:47.087Z,61.10
2019-03-13T17:17:50.905Z,61.40
2019-03-13T17:21:54.331Z,61.80
2019-03-13T17:25:58.419Z,62.00
2019-03-13T17:30:01.947Z,61.80
2019-03-13T17:34:06.058Z,61.90
2019-03-13T17:38:09.989Z,61.60
2019-03-13T17:42:12.981Z,61.70
2019-03-13T17:46:16.010Z,61.80
2019-03-13T17:50:22.740Z,61.90
2019-03-13T17:54:25.901Z,62.10
2019-03-13T17:58:28.937Z,62.40
2019-03-13T18:02:34.004Z,62.80
2019-03-13T18:06:37.291Z,62.80
2019-03-13T18:10:40.312Z,62.70
2019-03-13T18:14:43.348Z,62.70
2019-03-13T18:18:46.371Z,63.30
2019-03-13T18:22:49.398Z,63.90
2019-03-13T18:26:52.415Z,64.70
2019-03-13T18:30:55.410Z,65.80
2019-03-13T18:34:58.711Z,67.40
2019-03-13T18:39:04.678Z,69.20
2019-03-13T18:43:07.691Z,70.30
2019-03-13T18:47:10.748Z,71.00
2019-03-13T18:51:13.751Z,71.70
2019-03-13T18:55:30.712Z,72.70
2019-03-13T18:59:33.763Z,73.30
2019-03-13T19:03:36.772Z,73.50
2019-03-13T19:07:40.959Z,73.40
2019-03-13T19:11:43.979Z,73.90
2019-03-13T19:15:49.222Z,74.30
2019-03-13T19:19:53.153Z,75.90
2019-03-13T19:23:56.433Z,73.60
2019-03-13T19:27:59.461Z,73.40
2019-03-13T19:32:02.483Z,73.60
2019-03-13T19:36:05.528Z,72.60
2019-03-13T19:40:12.460Z,73.30
2019-03-13T19:44:15.478Z,72.60
2019-03-13T19:48:18.488Z,72.30
2019-03-13T19:52:21.490Z,73.20
2019-03-13T19:56:24.655Z,73.10
2019-03-13T20:00:28.254Z,73.30
2019-03-13T20:04:31.288Z,74.00
2019-03-13T20:08:34.305Z,74.00
2019-03-13T20:12:37.316Z,74.00
2019-03-13T20:16:40.315Z,74.70
2019-03-13T20:20:43.345Z,74.50
2019-03-13T20:24:46.344Z,74.40
2019-03-13T20:28:49.450Z,74.20
2019-03-13T20:32:52.459Z,74.30
2019-03-13T20:36:58.721Z,73.70
2019-03-13T20:41:02.379Z,73.70
2019-03-13T20:45:14.647Z,73.50
2019-03-13T20:49:18.761Z,73.30
2019-03-13T20:53:21.947Z,73.40
2019-03-13T20:57:24.971Z,73.00
2019-03-13T21:01:27.971Z,73.00
2019-03-13T21:05:30.989Z,73.30
2019-03-13T21:09:34.154Z,72.00
2019-03-13T21:13:37.167Z,72.00
2019-03-13T21:17:40.259Z,72.70
2019-03-13T21:21:43.263Z,72.60
2019-03-13T21:25:46.271Z,72.40
2019-03-13T21:29:49.276Z,73.50
2019-03-13T21:33:53.393Z,73.60
2019-03-13T21:37:56.608Z,74.20
2019-03-13T21:42:01.022Z,73.60
2019-03-13T21:46:06.614Z,73.80
2019-03-13T21:50:11.346Z,73.50
2019-03-13T21:54:14.367Z,73.40
2019-03-13T21:58:17.356Z,73.00
2019-03-13T22:02:28.400Z,73.20
2019-03-13T22:06:28.950Z,73.70
2019-03-13T22:10:30.217Z,74.30
2019-03-13T22:14:33.229Z,74.50
2019-03-13T22:18:36.352Z,73.90
2019-03-13T22:22:39.486Z,74.30
2019-03-13T22:26:42.482Z,74.00
2019-03-13T22:30:45.499Z,74.20
2019-03-13T22:34:48.522Z,74.00
2019-03-13T22:38:51.512Z,74.50
2019-03-13T22:42:56.333Z,74.80
2019-03-13T22:46:59.367Z,75.00
2019-03-13T22:51:02.645Z,75.50
2019-03-13T22:55:07.175Z,75.30
2019-03-13T22:59:10.171Z,75.60
2019-03-13T23:03:14.994Z,75.10
2019-03-13T23:07:18.038Z,74.70
2019-03-13T23:11:21.034Z,74.40
2019-03-13T23:15:24.205Z,74.10
2019-03-13T23:19:27.215Z,74.40
2019-03-13T23:23:30.214Z,74.50
2019-03-13T23:27:33.211Z,75.10
2019-03-13T23:31:36.218Z,74.90
2019-03-13T23:35:39.299Z,74.80
2019-03-13T23:39:42.325Z,74.70
2019-03-13T23:43:46.575Z,74.40
2019-03-13T23:47:49.594Z,75.10
2019-03-13T23:51:52.579Z,75.10
2019-03-13T23:55:55.590Z,75.60
